createdAt,value
2022-12-26T00:02:01.124Z,15.00
2022-12-26T00:05:03.825Z,14.70
2022-12-26T00:08:08.031Z,16.70
2022-12-26T00:11:11.906Z,14.90
2022-12-26T00:14:16.285Z,16.45
2022-12-26T00:17:18.680Z,14.85
2022-12-26T00:20:21.253Z,14.52
2022-12-26T00:23:23.717Z,14.27
2022-12-26T00:26:28.516Z,14.95
2022-12-26T00:29:32.003Z,15.73
2022-12-26T00:32:34.380Z,16.77
2022-12-26T00:35:36.819Z,10.90
2022-12-26T00:38:41.327Z,14.45
2022-12-26T00:41:43.718Z,15.90
2022-12-26T00:44:46.097Z,15.38
2022-12-26T00:47:48.421Z,17.88
2022-12-26T00:50:50.998Z,16.08
2022-12-26T00:53:53.435Z,13.53
2022-12-26T00:56:55.812Z,15.73
2022-12-26T00:59:58.198Z,14.23
2022-12-26T01:03:00.828Z,15.87
2022-12-26T01:06:04.277Z,15.73
2022-12-26T01:09:06.806Z,15.68
2022-12-26T01:12:09.121Z,14.35
2022-12-26T01:15:11.642Z,15.95
2022-12-26T01:18:13.953Z,15.23
2022-12-26T01:21:16.338Z,17.25
2022-12-26T01:24:18.832Z,17.13
2022-12-26T01:27:21.738Z,18.10
2022-12-26T01:30:24.215Z,18.05
2022-12-26T01:33:26.573Z,18.23
2022-12-26T01:36:29.059Z,15.63
2022-12-26T01:39:31.396Z,17.60
2022-12-26T01:42:40.672Z,16.70
2022-12-26T01:45:51.044Z,19.10
2022-12-26T01:48:55.455Z,16.90
2022-12-26T01:52:04.141Z,14.82
2022-12-26T01:55:10.173Z,15.03
2022-12-26T01:58:17.225Z,13.98
2022-12-26T02:01:21.968Z,15.35
2022-12-26T02:04:51.816Z,16.00
2022-12-26T02:07:54.235Z,15.63
2022-12-26T02:11:08.439Z,13.57
2022-12-26T02:14:11.461Z,15.68
2022-12-26T02:17:14.077Z,15.75
2022-12-26T02:20:20.877Z,15.15
2022-12-26T02:23:41.843Z,14.02
2022-12-26T02:27:10.309Z,13.80
2022-12-26T02:30:31.181Z,14.18
2022-12-26T02:33:58.520Z,14.40
2022-12-26T02:37:21.085Z,13.60
2022-12-26T02:41:01.979Z,14.30
2022-12-26T02:44:40.768Z,13.95
2022-12-26T02:47:43.572Z,13.98
2022-12-26T02:51:13.313Z,13.20
2022-12-26T02:54:45.521Z,13.23
2022-12-26T02:58:18.533Z,11.82
2022-12-26T03:02:04.522Z,12.63
2022-12-26T03:05:34.995Z,13.50
2022-12-26T03:09:01.252Z,11.60
2022-12-26T03:12:42.034Z,12.23
2022-12-26T03:16:34.019Z,12.95
2022-12-26T03:19:58.204Z,13.18
2022-12-26T03:23:06.299Z,14.27
2022-12-26T03:26:42.063Z,13.00
2022-12-26T03:30:03.533Z,12.18
2022-12-26T03:33:26.767Z,12.07
2022-12-26T03:36:50.795Z,13.63
2022-12-26T03:40:17.768Z,14.32
2022-12-26T03:44:21.398Z,13.73
2022-12-26T03:47:47.745Z,12.73
2022-12-26T03:51:17.220Z,12.75
2022-12-26T03:54:56.949Z,12.63
2022-12-26T03:58:41.573Z,11.77
2022-12-26T04:02:04.435Z,13.07
2022-12-26T04:05:28.903Z,13.95
2022-12-26T04:09:07.932Z,12.90
2022-12-26T04:12:38.129Z,11.60
2022-12-26T04:16:10.431Z,12.60
2022-12-26T04:19:37.790Z,12.75
2022-12-26T04:23:11.976Z,13.33
2022-12-26T04:26:55.825Z,12.13
2022-12-26T04:30:17.055Z,10.95
2022-12-26T04:33:46.802Z,12.50
2022-12-26T04:37:17.225Z,13.07
2022-12-26T04:40:44.895Z,12.27
2022-12-26T04:44:09.018Z,11.63
2022-12-26T04:47:12.044Z,12.07
2022-12-26T04:50:15.471Z,11.20
2022-12-26T04:53:18.464Z,11.20
2022-12-26T04:56:20.822Z,12.20
2022-12-26T04:59:23.521Z,12.10
2022-12-26T05:02:44.303Z,11.57
2022-12-26T05:06:08.166Z,12.15
2022-12-26T05:09:30.342Z,12.02
2022-12-26T05:12:32.866Z,11.98
2022-12-26T05:15:56.755Z,12.30
2022-12-26T05:19:17.417Z,10.97
2022-12-26T05:22:39.103Z,10.98
2022-12-26T05:26:02.297Z,11.25
2022-12-26T05:29:05.502Z,12.07
2022-12-26T05:32:07.885Z,13.18
2022-12-26T05:35:10.514Z,13.43
2022-12-26T05:38:12.860Z,12.85
2022-12-26T05:41:16.467Z,11.00
2022-12-26T05:44:18.847Z,12.00
2022-12-26T05:47:21.245Z,12.38
2022-12-26T05:50:23.601Z,12.07
2022-12-26T05:53:26.673Z,11.68
2022-12-26T05:56:29.047Z,11.73
2022-12-26T05:59:31.375Z,11.13
2022-12-26T06:02:33.898Z,10.70
2022-12-26T06:05:36.409Z,11.60
2022-12-26T06:08:39.485Z,11.38
2022-12-26T06:11:48.514Z,14.88
2022-12-26T06:14:51.489Z,11.95
2022-12-26T06:17:55.036Z,11.00
2022-12-26T06:20:57.705Z,12.43
2022-12-26T06:24:00.116Z,12.23
2022-12-26T06:27:03.311Z,11.52
2022-12-26T06:30:06.169Z,11.47
2022-12-26T06:33:08.648Z,11.48
2022-12-26T06:36:13.913Z,13.05
2022-12-26T06:39:16.285Z,12.80
2022-12-26T06:42:18.821Z,12.93
2022-12-26T06:45:21.206Z,18.80
2022-12-26T06:48:25.033Z,14.90
2022-12-26T06:51:28.992Z,11.73
2022-12-26T06:54:31.296Z,17.27
2022-12-26T06:57:33.671Z,15.70
2022-12-26T07:00:36.237Z,12.07
2022-12-26T07:03:44.796Z,10.27
2022-12-26T07:06:51.199Z,12.77
2022-12-26T07:09:53.677Z,14.27
2022-12-26T07:12:56.352Z,15.25
2022-12-26T07:16:00.175Z,14.32
2022-12-26T07:19:03.953Z,13.65
2022-12-26T07:22:06.639Z,23.27
2022-12-26T07:25:09.416Z,13.98
2022-12-26T07:28:11.873Z,14.13
2022-12-26T07:31:19.071Z,16.13
2022-12-26T07:34:24.104Z,16.48
2022-12-26T07:37:30.253Z,15.82
2022-12-26T07:40:32.735Z,19.73
2022-12-26T07:43:35.097Z,15.57
2022-12-26T07:46:37.834Z,19.88
2022-12-26T07:49:40.393Z,26.65
2022-12-26T07:52:43.014Z,19.83
2022-12-26T07:55:45.491Z,16.70
2022-12-26T07:58:51.841Z,19.60
2022-12-26T08:01:54.507Z,17.60
2022-12-26T08:04:56.993Z,24.25
2022-12-26T08:07:59.388Z,33.25
2022-12-26T08:11:03.486Z,20.58
2022-12-26T08:14:05.867Z,19.13
2022-12-26T08:17:08.416Z,18.30
2022-12-26T08:20:10.996Z,16.77
2022-12-26T08:23:13.770Z,16.03
2022-12-26T08:26:20.886Z,15.95
2022-12-26T08:29:23.340Z,11.90
2022-12-26T08:32:25.801Z,14.27
2022-12-26T08:35:30.269Z,15.32
2022-12-26T08:38:33.984Z,15.77
2022-12-26T08:41:36.668Z,17.05
2022-12-26T08:44:39.051Z,19.42
2022-12-26T08:47:41.369Z,17.88
2022-12-26T08:50:43.760Z,18.23
2022-12-26T08:53:46.841Z,17.73
2022-12-26T08:56:49.219Z,15.20
2022-12-26T08:59:51.993Z,15.20
2022-12-26T09:02:54.564Z,15.00
2022-12-26T09:06:05.661Z,14.45
2022-12-26T09:09:13.669Z,14.63
2022-12-26T09:12:16.027Z,17.27
2022-12-26T09:15:18.419Z,13.80
2022-12-26T09:18:20.806Z,15.07
2022-12-26T09:21:23.560Z,17.17
2022-12-26T09:24:25.920Z,14.43
2022-12-26T09:27:29.313Z,12.18
2022-12-26T09:30:31.804Z,11.68
2022-12-26T09:33:37.632Z,11.40
2022-12-26T09:36:40.145Z,11.95
2022-12-26T09:39:42.555Z,12.27
2022-12-26T09:43:17.361Z,11.48
2022-12-26T09:46:34.849Z,11.57
2022-12-26T09:49:46.256Z,12.65
2022-12-26T09:53:00.944Z,15.48
2022-12-26T09:56:18.336Z,14.10
2022-12-26T09:59:34.427Z,13.82
2022-12-26T10:02:36.914Z,13.45
2022-12-26T10:06:03.478Z,13.70
2022-12-26T10:09:08.803Z,15.73
2022-12-26T10:12:32.723Z,15.35
2022-12-26T10:15:46.107Z,15.77
2022-12-26T10:18:51.257Z,16.48
2022-12-26T10:22:05.397Z,17.27
2022-12-26T10:25:21.651Z,16.48
2022-12-26T10:28:33.549Z,14.90
2022-12-26T10:31:42.528Z,15.90
2022-12-26T10:34:48.105Z,16.02
2022-12-26T10:37:53.721Z,16.53
2022-12-26T10:41:00.631Z,13.65
2022-12-26T10:44:03.832Z,15.85
2022-12-26T10:47:23.513Z,14.82
2022-12-26T10:50:29.464Z,17.77
2022-12-26T10:53:46.525Z,16.90
2022-12-26T10:56:51.729Z,16.17
2022-12-26T10:59:55.673Z,15.00
2022-12-26T11:03:06.232Z,16.17
2022-12-26T11:06:10.218Z,15.63
2022-12-26T11:09:38.260Z,16.80
2022-12-26T11:12:50.139Z,15.77
2022-12-26T11:15:53.504Z,15.25
2022-12-26T11:18:57.109Z,16.00
2022-12-26T11:22:22.544Z,18.50
2022-12-26T11:25:27.582Z,18.52
2022-12-26T11:28:32.236Z,18.45
2022-12-26T11:31:34.889Z,16.57
2022-12-26T11:34:46.347Z,13.73
2022-12-26T11:37:57.023Z,17.80
2022-12-26T11:41:18.375Z,17.50
2022-12-26T11:44:30.217Z,18.00
2022-12-26T11:47:32.663Z,17.67
2022-12-26T11:50:45.793Z,17.83
2022-12-26T11:53:48.095Z,19.25
2022-12-26T11:57:20.348Z,20.00
2022-12-26T12:00:24.535Z,18.13
2022-12-26T12:03:37.789Z,23.90
2022-12-26T12:07:00.906Z,19.15
2022-12-26T12:10:50.555Z,19.38
2022-12-26T12:14:23.817Z,20.87
2022-12-26T12:17:34.281Z,21.48
2022-12-26T12:21:04.357Z,21.88
2022-12-26T12:24:32.342Z,20.75
2022-12-26T12:27:59.409Z,20.70
2022-12-26T12:31:17.012Z,21.42
2022-12-26T12:34:22.362Z,20.80
2022-12-26T12:37:33.378Z,18.90
2022-12-26T12:41:06.158Z,21.65
2022-12-26T12:44:43.810Z,24.27
2022-12-26T12:48:15.585Z,26.50
2022-12-26T12:51:24.243Z,24.42
2022-12-26T12:54:57.197Z,24.10
2022-12-26T12:58:33.604Z,23.33
2022-12-26T13:01:47.344Z,21.70
2022-12-26T13:04:59.648Z,23.33
2022-12-26T13:08:11.224Z,22.55
2022-12-26T13:11:30.867Z,23.00
2022-12-26T13:14:40.577Z,21.65
2022-12-26T13:17:56.193Z,22.50
2022-12-26T13:21:06.772Z,21.83
2022-12-26T13:24:25.275Z,22.38
2022-12-26T13:27:31.600Z,24.25
2022-12-26T13:30:34.029Z,29.38
2022-12-26T13:33:36.644Z,27.63
2022-12-26T13:36:38.949Z,27.05
2022-12-26T13:39:41.740Z,26.77
2022-12-26T13:43:18.874Z,31.57
2022-12-26T13:46:35.108Z,37.38
2022-12-26T13:49:40.181Z,31.15
2022-12-26T13:52:43.740Z,31.17
2022-12-26T13:55:46.476Z,27.90
2022-12-26T13:59:13.013Z,25.40
2022-12-26T14:06:36.375Z,24.30
2022-12-26T14:10:02.004Z,25.90
2022-12-26T14:13:14.329Z,25.40
2022-12-26T14:16:24.436Z,23.53
2022-12-26T14:19:41.229Z,26.30
2022-12-26T14:23:10.305Z,28.00
2022-12-26T14:26:57.531Z,31.23
2022-12-26T14:30:18.480Z,33.38
2022-12-26T14:33:39.966Z,30.48
2022-12-26T14:36:54.535Z,32.42
2022-12-26T14:40:22.574Z,33.20
2022-12-26T14:43:36.868Z,36.10
2022-12-26T14:46:40.274Z,34.92
2022-12-26T14:49:43.058Z,37.27
2022-12-26T14:52:45.600Z,38.22
2022-12-26T14:55:52.262Z,31.58
2022-12-26T14:59:26.993Z,35.30
2022-12-26T15:02:35.723Z,33.50
2022-12-26T15:05:42.853Z,36.45
2022-12-26T15:08:45.179Z,33.50
2022-12-26T15:12:24.528Z,34.08
2022-12-26T15:15:48.777Z,30.92
2022-12-26T15:19:12.605Z,31.25
2022-12-26T15:22:33.620Z,32.07
2022-12-26T15:25:41.754Z,34.47
2022-12-26T15:28:47.012Z,32.92
2022-12-26T15:32:14.504Z,31.13
2022-12-26T15:35:36.417Z,29.65
2022-12-26T15:38:54.116Z,38.03
2022-12-26T15:42:03.553Z,61.22
2022-12-26T15:45:27.717Z,39.92
2022-12-26T15:48:56.343Z,36.40
2022-12-26T15:52:07.507Z,34.30
2022-12-26T15:55:17.938Z,33.30
2022-12-26T15:58:35.401Z,30.75
2022-12-26T16:01:39.310Z,31.17
2022-12-26T16:04:52.141Z,33.97
2022-12-26T16:08:19.293Z,38.33
2022-12-26T16:11:25.536Z,31.90
2022-12-26T16:14:39.472Z,32.63
2022-12-26T16:17:43.200Z,31.30
2022-12-26T16:21:05.560Z,32.20
2022-12-26T16:24:10.034Z,34.65
2022-12-26T16:27:18.639Z,40.83
2022-12-26T16:30:26.929Z,44.10
2022-12-26T16:33:32.738Z,43.95
2022-12-26T16:36:36.623Z,49.97
2022-12-26T16:39:39.328Z,48.05
2022-12-26T16:43:00.917Z,39.60
2022-12-26T16:46:06.107Z,35.92
2022-12-26T16:49:10.261Z,34.42
2022-12-26T16:52:48.346Z,34.25
2022-12-26T16:55:56.781Z,36.33
2022-12-26T16:59:06.323Z,32.50
2022-12-26T17:02:18.592Z,38.25
2022-12-26T17:05:26.008Z,32.42
2022-12-26T17:08:28.771Z,30.67
2022-12-26T17:11:35.274Z,31.08
2022-12-26T17:14:40.894Z,31.40
2022-12-26T17:17:45.995Z,33.13
2022-12-26T17:20:48.593Z,30.42
2022-12-26T17:24:09.225Z,32.08
2022-12-26T17:27:19.059Z,34.08
2022-12-26T17:30:30.574Z,34.33
2022-12-26T17:33:33.744Z,39.90
2022-12-26T17:37:17.138Z,34.72
2022-12-26T17:40:19.495Z,30.00
2022-12-26T17:43:31.023Z,32.30
2022-12-26T17:46:33.481Z,32.20
2022-12-26T17:49:36.303Z,35.38
2022-12-26T17:52:39.458Z,38.22
2022-12-26T17:55:41.983Z,44.58
2022-12-26T17:58:44.360Z,53.92
2022-12-26T18:01:46.913Z,48.70
2022-12-26T18:04:50.480Z,56.15
2022-12-26T18:07:53.469Z,50.20
2022-12-26T18:10:56.220Z,52.07
2022-12-26T18:13:58.599Z,50.70
2022-12-26T18:17:02.466Z,75.32
2022-12-26T18:20:06.582Z,59.42
2022-12-26T18:23:11.209Z,61.78
2022-12-26T18:26:22.326Z,59.20
2022-12-26T18:29:24.870Z,41.05
2022-12-26T18:32:30.966Z,33.60
2022-12-26T18:35:33.885Z,31.95
2022-12-26T18:38:36.281Z,34.13
2022-12-26T18:41:38.644Z,32.20
2022-12-26T18:44:42.548Z,34.67
2022-12-26T18:47:44.893Z,35.42
2022-12-26T18:50:47.702Z,35.90
2022-12-26T18:53:50.103Z,36.10
2022-12-26T18:56:52.646Z,35.00
2022-12-26T18:59:55.369Z,38.28
2022-12-26T19:02:57.949Z,40.40
2022-12-26T19:06:00.701Z,42.92
2022-12-26T19:09:03.436Z,38.97
2022-12-26T19:12:06.341Z,32.13
2022-12-26T19:15:09.957Z,34.53
2022-12-26T19:18:12.776Z,29.67
2022-12-26T19:21:16.301Z,30.58
2022-12-26T19:24:18.851Z,28.30
2022-12-26T19:27:21.831Z,30.02
2022-12-26T19:30:24.367Z,39.00
2022-12-26T19:33:27.047Z,35.53
2022-12-26T19:36:29.568Z,40.60
2022-12-26T19:39:32.180Z,40.92
2022-12-26T19:42:37.321Z,37.90
2022-12-26T19:45:40.121Z,38.65
2022-12-26T19:48:43.454Z,31.58
2022-12-26T19:51:46.436Z,29.75
2022-12-26T19:54:49.293Z,30.10
2022-12-26T19:57:51.981Z,30.55
2022-12-26T20:00:54.897Z,29.23
2022-12-26T20:03:59.299Z,31.90
2022-12-26T20:07:01.798Z,34.42
2022-12-26T20:10:05.134Z,46.63
2022-12-26T20:13:07.569Z,47.30
2022-12-26T20:16:37.535Z,54.33
2022-12-26T20:19:36.663Z,40.53
2022-12-26T20:22:39.054Z,40.58
2022-12-26T20:25:41.584Z,38.35
2022-12-26T20:28:44.528Z,40.13
2022-12-26T20:31:47.264Z,37.55
2022-12-26T20:34:49.656Z,39.27
2022-12-26T20:37:52.206Z,31.70
2022-12-26T20:40:54.871Z,34.90
2022-12-26T20:43:58.382Z,35.07
2022-12-26T20:47:00.776Z,36.92
2022-12-26T20:50:03.377Z,34.08
2022-12-26T20:53:05.938Z,32.67
2022-12-26T20:56:09.220Z,32.58
2022-12-26T20:59:11.871Z,32.72
2022-12-26T21:02:14.813Z,34.88
2022-12-26T21:05:17.853Z,39.53
2022-12-26T21:08:21.103Z,40.60
2022-12-26T21:11:25.281Z,35.47
2022-12-26T21:14:27.748Z,37.47
2022-12-26T21:17:30.081Z,33.17
2022-12-26T21:20:32.489Z,33.22
2022-12-26T21:23:36.225Z,33.45
2022-12-26T21:26:41.894Z,33.25
2022-12-26T21:29:44.508Z,28.92
2022-12-26T21:32:46.898Z,29.05
2022-12-26T21:35:53.220Z,28.33
2022-12-26T21:38:57.009Z,33.15
2022-12-26T21:42:00.475Z,40.42
2022-12-26T21:45:02.994Z,27.37
2022-12-26T21:48:06.000Z,21.80
2022-12-26T21:51:08.992Z,23.38
2022-12-26T21:54:29.747Z,26.63
2022-12-26T21:57:34.262Z,25.33
2022-12-26T22:00:37.140Z,27.75
2022-12-26T22:03:57.893Z,31.85
2022-12-26T22:07:00.344Z,30.97
2022-12-26T22:10:04.623Z,31.98
2022-12-26T22:13:07.287Z,27.45
2022-12-26T22:16:11.713Z,37.37
2022-12-26T22:19:14.336Z,40.30
2022-12-26T22:22:16.843Z,44.00
2022-12-26T22:25:19.913Z,45.65
2022-12-26T22:28:23.547Z,44.40
2022-12-26T22:31:28.903Z,41.40
2022-12-26T22:34:31.279Z,44.03
2022-12-26T22:37:33.665Z,39.87
2022-12-26T22:40:36.350Z,36.15
2022-12-26T22:43:38.814Z,38.80
2022-12-26T22:46:42.035Z,38.23
2022-12-26T22:49:44.580Z,38.42
2022-12-26T22:52:47.145Z,37.10
2022-12-26T22:55:58.314Z,44.20
2022-12-26T22:59:01.012Z,37.88
2022-12-26T23:02:04.023Z,46.05
2022-12-26T23:05:10.754Z,48.60
2022-12-26T23:08:22.184Z,40.90
2022-12-26T23:11:33.938Z,33.45
2022-12-26T23:14:37.674Z,35.33
2022-12-26T23:18:02.079Z,35.40
2022-12-26T23:21:27.857Z,37.35
2022-12-26T23:24:32.168Z,36.20
2022-12-26T23:27:52.887Z,34.45
2022-12-26T23:30:55.370Z,31.92
2022-12-26T23:33:57.758Z,35.80
2022-12-26T23:37:00.373Z,33.38
2022-12-26T23:40:03.375Z,32.70
2022-12-26T23:43:05.847Z,32.20
2022-12-26T23:46:10.195Z,34.22
2022-12-26T23:49:16.028Z,31.50
2022-12-26T23:52:18.565Z,31.08
2022-12-26T23:55:20.944Z,35.45
2022-12-26T23:58:23.516Z,30.98
